Time;durP1;ratioP1;P1;durP2;ratioP2;P2;SDS_P1;SDS_P2;PMS_P1;PMS_P2;Temp;Humidity;BMP_temperature;BMP_pressure;BME280_temperature;BME280_humidity;BME280_pressure;Samples;Min_cycle;Max_cycle;Signal;HPM_P1;HPM_P2
2022/06/23 00:00:03;;;;;;;11.60;8.82;;;;;;;20.66;98.90;98143.22;4956933;28;20045;-57
2022/06/23 00:02:30;;;;;;;11.52;9.10;;;;;;;20.67;98.49;98134.28;4934485;28;20039;-59
2022/06/23 00:05:07;;;;;;;13.65;9.35;;;;;;;20.67;98.05;98132.44;4940098;28;20033;-56
2022/06/23 00:07:35;;;;;;;11.50;8.50;;;;;;;20.73;97.94;98138.69;4940642;28;20047;-59
2022/06/23 00:10:18;;;;;;;13.80;8.70;;;;;;;20.49;98.94;98103.38;4921990;29;20066;-59
2022/06/23 00:12:44;;;;;;;12.45;8.73;;;;;;;20.70;98.34;98137.31;4938152;28;20065;-59
2022/06/23 00:15:09;;;;;;;12.40;9.00;;;;;;;20.50;98.66;98115.56;4940807;28;20123;-55
2022/06/23 00:17:59;;;;;;;14.45;8.77;;;;;;;20.59;98.74;98121.34;4937979;28;20477;-59
2022/06/23 00:20:31;;;;;;;12.50;8.90;;;;;;;20.62;98.70;98127.03;4939257;28;20027;-56
2022/06/23 00:23:05;;;;;;;12.70;8.75;;;;;;;20.60;98.40;98121.13;4956497;28;20426;-55
2022/06/23 00:25:53;;;;;;;11.68;9.02;;;;;;;20.62;97.83;98126.22;4939136;28;20026;-58
2022/06/23 00:28:19;;;;;;;12.23;9.20;;;;;;;20.61;97.10;98127.25;4936717;28;20768;-56
2022/06/23 00:30:50;;;;;;;9.85;8.35;;;;;;;20.54;97.55;98128.09;4937306;28;20038;-58
2022/06/23 00:33:25;;;;;;;12.77;8.82;;;;;;;20.31;97.37;98094.44;4934225;28;20147;-55
2022/06/23 00:35:52;;;;;;;12.98;8.35;;;;;;;20.54;97.78;98122.81;4934552;28;20035;-57
2022/06/23 00:38:24;;;;;;;13.25;8.88;;;;;;;20.50;97.22;98128.78;4938339;28;20042;-57
2022/06/23 00:40:50;;;;;;;13.20;8.85;;;;;;;20.47;97.74;98127.38;4939407;28;20086;-59
2022/06/23 00:43:17;;;;;;;13.32;8.55;;;;;;;20.49;97.69;98127.94;4954208;28;20286;-58
2022/06/23 00:45:55;;;;;;;11.63;8.50;;;;;;;20.48;97.93;98129.00;4939362;28;20042;-56
2022/06/23 00:48:35;;;;;;;13.00;8.30;;;;;;;20.18;96.96;98070.81;4944055;28;20070;-59
2022/06/23 00:51:23;;;;;;;12.93;9.13;;;;;;;20.50;97.36;98129.56;4937269;28;20031;-57
2022/06/23 00:53:57;;;;;;;11.23;8.40;;;;;;;20.41;98.21;98138.00;4922194;28;20692;-58
2022/06/23 00:56:45;;;;;;;11.55;8.57;;;;;;;20.45;97.80;98137.34;4950134;28;20034;-60
2022/06/23 00:59:21;;;;;;;14.77;8.57;;;;;;;20.47;97.58;98130.00;4934601;28;20046;-58
2022/06/23 01:01:57;;;;;;;11.98;8.80;;;;;;;20.50;97.18;98139.34;4943082;28;20031;-60
2022/06/23 01:04:30;;;;;;;11.50;8.23;;;;;;;20.47;96.79;98127.38;4940130;28;20122;-58
2022/06/23 01:07:24;;;;;;;10.60;7.90;;;;;;;20.50;96.31;98126.13;4937203;28;20047;-56
2022/06/23 01:09:53;;;;;;;12.00;7.70;;;;;;;20.32;95.66;98109.25;4947941;28;20093;-57
2022/06/23 01:12:33;;;;;;;11.52;7.75;;;;;;;20.40;95.53;98134.56;4942589;28;20035;-60
2022/06/23 01:15:25;;;;;;;10.90;7.55;;;;;;;20.36;95.02;98131.53;4945069;28;20767;-57
2022/06/23 01:17:56;;;;;;;13.85;7.18;;;;;;;20.40;94.93;98141.66;4935850;28;20122;-57
2022/06/23 01:20:38;;;;;;;9.88;7.25;;;;;;;20.15;94.50;98093.19;4939926;28;20027;-57
2022/06/23 01:23:14;;;;;;;12.45;8.07;;;;;;;20.41;94.93;98136.19;4932735;28;20094;-57
2022/06/23 01:25:58;;;;;;;11.40;7.35;;;;;;;20.34;95.28;98146.78;4916331;28;20050;-59
2022/06/23 01:28:28;;;;;;;9.38;7.53;;;;;;;20.29;96.11;98144.00;4945540;28;20062;-57
2022/06/23 01:30:58;;;;;;;9.50;7.00;;;;;;;20.21;96.08;98130.31;4953496;28;20878;-58
2022/06/23 01:33:36;;;;;;;10.23;6.53;;;;;;;20.13;97.69;98124.28;4955730;28;20757;-57
2022/06/23 01:36:23;;;;;;;10.57;7.43;;;;;;;20.24;97.34;98138.56;4943525;28;20521;-58
2022/06/23 01:38:55;;;;;;;11.18;7.47;;;;;;;20.24;97.63;98140.41;4941191;28;20046;-56
2022/06/23 01:41:32;;;;;;;9.18;6.97;;;;;;;20.01;98.36;98099.63;4941358;28;20027;-57
2022/06/23 01:44:06;;;;;;;12.90;7.30;;;;;;;20.19;98.18;98127.88;4942741;28;20042;-58
2022/06/23 01:46:38;;;;;;;13.07;7.70;;;;;;;20.08;98.48;98120.66;4924235;28;20044;-56
2022/06/23 01:49:14;;;;;;;10.65;7.32;;;;;;;19.90;98.03;98093.25;4939867;28;20533;-58
2022/06/23 01:51:48;;;;;;;14.32;7.93;;;;;;;20.08;97.24;98124.13;4949371;28;20110;-56
2022/06/23 01:54:20;;;;;;;10.93;7.10;;;;;;;19.90;96.71;98097.72;4944458;28;20122;-59
2022/06/23 01:57:32;;;;;;;10.70;7.45;;;;;;;20.06;97.04;98139.38;4952255;28;20130;-58
2022/06/23 02:00:13;;;;;;;10.60;6.63;;;;;;;20.08;96.42;98147.03;4926615;29;20027;-58
2022/06/23 02:02:41;;;;;;;11.18;6.70;;;;;;;20.10;95.47;98131.81;4920088;28;20035;-58
2022/06/23 02:05:29;;;;;;;10.25;6.65;;;;;;;20.16;95.08;98139.66;4945082;28;20038;-56
2022/06/23 02:07:57;;;;;;;13.27;7.30;;;;;;;20.00;95.28;98128.88;4942463;28;20122;-56
2022/06/23 02:10:43;;;;;;;9.13;6.65;;;;;;;19.91;93.96;98104.59;4942811;28;20118;-57
2022/06/23 02:13:39;;;;;;;10.45;6.30;;;;;;;20.06;93.38;98128.00;4944665;28;20034;-56
2022/06/23 02:16:16;;;;;;;12.10;6.75;;;;;;;20.09;93.55;98136.28;4934374;28;20035;-56
2022/06/23 02:18:55;;;;;;;9.55;5.93;;;;;;;20.02;93.75;98132.91;4938366;28;20034;-61
2022/06/23 02:21:29;;;;;;;9.52;6.20;;;;;;;20.02;93.77;98118.91;4919950;29;20058;-54
2022/06/23 02:24:07;;;;;;;9.35;5.78;;;;;;;20.04;93.88;98130.03;4936348;28;20030;-56
2022/06/23 02:26:37;;;;;;;10.75;6.43;;;;;;;19.95;94.27;98121.59;4922881;28;20027;-58
2022/06/23 02:29:04;;;;;;;10.32;6.72;;;;;;;19.98;93.72;98131.72;4943813;28;20028;-59
2022/06/23 02:31:49;;;;;;;8.63;5.55;;;;;;;19.78;93.91;98105.50;4945733;28;20047;-58
2022/06/23 02:34:17;;;;;;;8.07;5.40;;;;;;;19.98;92.51;98129.09;4957631;28;20047;-57
2022/06/23 02:36:43;;;;;;;9.70;5.65;;;;;;;19.84;92.62;98107.31;4945982;28;20031;-58
2022/06/23 02:39:24;;;;;;;9.88;5.30;;;;;;;19.97;92.80;98125.66;4942673;28;20482;-55
2022/06/23 02:42:03;;;;;;;9.48;5.68;;;;;;;19.92;92.92;98133.41;4925812;28;20131;-57
2022/06/23 02:44:43;;;;;;;8.20;5.50;;;;;;;19.93;92.71;98121.84;4942999;28;20050;-57
2022/06/23 02:47:19;;;;;;;7.85;5.38;;;;;;;19.92;92.81;98128.13;4924617;29;20513;-58
2022/06/23 02:50:00;;;;;;;10.95;6.68;;;;;;;19.88;93.40;98132.22;4959098;28;20047;-58
2022/06/23 02:52:41;;;;;;;9.38;5.88;;;;;;;19.68;93.53;98105.19;4944183;28;20722;-57
2022/06/23 02:55:09;;;;;;;7.32;5.60;;;;;;;19.82;94.07;98130.44;4951525;28;20127;-54
2022/06/23 02:57:50;;;;;;;9.65;6.22;;;;;;;19.85;94.87;98143.19;4942999;28;21145;-56
2022/06/23 03:00:24;;;;;;;11.13;6.55;;;;;;;19.82;95.41;98125.16;4952355;28;20106;-56
2022/06/23 03:03:06;;;;;;;11.50;6.97;;;;;;;19.85;95.21;98126.56;4934021;28;20044;-54
2022/06/23 03:05:38;;;;;;;10.45;7.07;;;;;;;19.80;96.51;98131.69;4939508;28;20040;-55
2022/06/23 03:08:43;;;;;;;10.75;7.15;;;;;;;19.78;96.82;98137.16;4958478;28;20070;-58
2022/06/23 03:11:16;;;;;;;9.32;6.95;;;;;;;19.60;96.66;98106.22;4940275;28;20074;-59
2022/06/23 03:13:45;;;;;;;11.18;7.22;;;;;;;19.76;96.50;98136.56;4927906;28;20031;-56
2022/06/23 03:16:13;;;;;;;;;;;;;;;19.76;96.48;98133.94;4959564;28;20126;-54
2022/06/23 03:19:10;;;;;;;10.82;6.43;;;;;;;19.72;97.42;98127.47;4923204;28;19918;-57
2022/06/23 03:21:45;;;;;;;9.60;7.03;;;;;;;19.80;98.12;98134.31;4947209;28;20085;-57
2022/06/23 03:24:27;;;;;;;10.68;6.93;;;;;;;19.82;98.15;98132.28;4930967;28;20118;-57
2022/06/23 03:26:58;;;;;;;10.65;7.13;;;;;;;19.59;98.57;98108.06;4929337;28;20119;-58
2022/06/23 03:29:35;;;;;;;11.27;6.70;;;;;;;19.75;98.68;98138.41;4915354;28;20043;-57
2022/06/23 03:32:11;;;;;;;12.23;7.35;;;;;;;19.73;98.74;98139.63;4947675;28;20102;-59
2022/06/23 03:34:44;;;;;;;11.90;7.13;;;;;;;19.57;99.34;98104.06;4940142;28;20043;-55
2022/06/23 03:37:20;;;;;;;12.43;7.32;;;;;;;19.72;99.60;98132.72;4937399;28;20111;-57
2022/06/23 03:42:58;;;;;;;11.80;7.32;;;;;;;19.85;97.54;98142.41;4952093;28;20086;-58
2022/06/23 03:45:42;;;;;;;11.57;7.22;;;;;;;19.54;98.11;98109.75;4941406;28;20070;-55
2022/06/23 03:48:37;;;;;;;14.90;7.63;;;;;;;19.69;98.61;98139.22;4926600;29;20141;-57
2022/06/23 03:51:06;;;;;;;11.63;6.82;;;;;;;19.68;99.12;98137.63;4926445;28;20062;-59
2022/06/23 03:53:52;;;;;;;11.35;6.90;;;;;;;19.66;98.94;98139.69;4939395;28;20043;-57
2022/06/23 03:56:21;;;;;;;9.65;6.78;;;;;;;19.64;98.44;98136.44;4950498;28;20032;-59
2022/06/23 03:59:15;;;;;;;11.35;7.00;;;;;;;19.61;98.05;98136.88;4938570;28;20058;-58
2022/06/23 04:01:57;;;;;;;10.35;6.25;;;;;;;19.63;96.82;98136.66;4942655;28;20135;-58
2022/06/23 04:04:44;;;;;;;11.23;6.75;;;;;;;19.07;96.14;98059.97;4932891;28;20541;-60
2022/06/23 04:07:28;;;;;;;9.15;6.22;;;;;;;19.60;95.89;98140.50;4930183;28;20237;-57
2022/06/23 04:13:22;;;;;;;9.77;6.32;;;;;;;19.66;95.25;98157.31;4935987;28;20057;-57
2022/06/23 04:15:49;;;;;;;8.32;5.78;;;;;;;19.59;95.23;98155.53;4941285;28;20093;-58
2022/06/23 04:18:27;;;;;;;8.45;5.82;;;;;;;19.55;95.34;98157.00;4930286;28;20042;-58
2022/06/23 04:20:57;;;;;;;12.02;6.25;;;;;;;19.56;95.71;98144.59;4940005;28;20478;-59
2022/06/23 04:23:27;;;;;;;9.05;7.00;;;;;;;19.38;95.25;98109.25;4930854;28;20110;-58
2022/06/23 04:26:07;;;;;;;10.98;6.30;;;;;;;19.59;95.00;98152.09;4939271;28;20031;-59
2022/06/23 04:28:57;;;;;;;11.73;6.45;;;;;;;19.63;95.00;98155.13;4934821;28;20082;-61
2022/06/23 04:31:30;;;;;;;11.57;6.60;;;;;;;19.59;94.96;98158.19;4940013;28;20043;-58
2022/06/23 04:33:57;;;;;;;8.75;5.60;;;;;;;19.36;95.05;98124.44;4934098;29;20035;-57
2022/06/23 04:36:25;;;;;;;11.02;5.13;;;;;;;19.62;94.45;98164.84;4943054;28;20663;-58
2022/06/23 04:38:58;;;;;;;8.82;5.28;;;;;;;19.57;94.65;98164.69;4929002;28;20043;-57
2022/06/23 04:41:25;;;;;;;10.63;6.13;;;;;;;19.62;94.61;98164.03;4939497;28;20087;-59
2022/06/23 04:43:56;;;;;;;10.10;5.80;;;;;;;19.55;94.86;98162.25;4924008;28;20042;-56
2022/06/23 04:47:18;;;;;;;8.55;5.57;;;;;;;19.54;94.97;98173.03;4935241;28;20028;-57
2022/06/23 04:49:50;;;;;;;11.05;5.55;;;;;;;19.51;94.06;98182.19;4923134;28;20047;-57
2022/06/23 04:52:27;;;;;;;8.73;5.53;;;;;;;19.56;93.27;98169.13;4940233;28;20066;-57
2022/06/23 04:54:57;;;;;;;9.50;4.88;;;;;;;19.57;92.52;98178.69;4935376;28;20058;-56
2022/06/23 04:57:31;;;;;;;9.32;4.95;;;;;;;19.49;92.30;98164.94;4936190;28;20039;-55
2022/06/23 04:59:59;;;;;;;10.13;4.47;;;;;;;19.63;91.78;98182.28;4923782;29;20433;-57
2022/06/23 05:02:41;;;;;;;7.95;4.38;;;;;;;19.57;90.62;98176.03;4925247;29;20058;-59
2022/06/23 05:05:17;;;;;;;8.55;4.50;;;;;;;19.66;90.82;98189.78;4944023;28;20206;-58
2022/06/23 05:07:49;;;;;;;7.35;4.75;;;;;;;19.64;89.43;98191.84;4925388;28;20035;-59
2022/06/23 05:10:23;;;;;;;7.60;4.15;;;;;;;19.57;90.24;98173.41;4957023;28;20090;-59
2022/06/23 05:12:52;;;;;;;10.70;4.93;;;;;;;19.48;89.45;98156.22;4938983;28;20336;-54
2022/06/23 05:15:21;;;;;;;8.70;4.55;;;;;;;19.62;89.83;98191.22;4931178;28;20074;-58
2022/06/23 05:17:51;;;;;;;7.18;4.10;;;;;;;19.64;89.31;98202.38;4960545;28;20033;-59
2022/06/23 05:20:34;;;;;;;7.53;4.05;;;;;;;19.68;89.04;98200.94;4935438;28;20039;-58
2022/06/23 05:23:01;;;;;;;9.02;4.60;;;;;;;19.67;89.15;98201.94;4939926;28;20559;-57
2022/06/23 05:25:43;;;;;;;9.70;4.80;;;;;;;19.75;88.50;98207.00;4933631;28;20936;-57
2022/06/23 05:28:15;;;;;;;9.38;4.30;;;;;;;19.74;88.07;98199.28;4955416;28;20462;-58
2022/06/23 05:30:47;;;;;;;8.02;4.57;;;;;;;19.73;87.94;98195.84;4936309;28;20070;-57
2022/06/23 05:33:17;;;;;;;8.02;4.40;;;;;;;19.78;87.80;98214.47;4944635;28;20038;-61
2022/06/23 05:35:44;;;;;;;;;;;;;;;19.80;87.07;98216.88;4936000;28;20054;-58
2022/06/23 05:38:25;;;;;;;7.07;4.32;;;;;;;19.88;86.04;98226.41;4939414;28;19955;-57
2022/06/23 05:40:52;;;;;;;6.97;3.80;;;;;;;19.91;84.69;98226.75;4940467;28;20023;-58
2022/06/23 05:43:17;;;;;;;7.43;3.90;;;;;;;19.94;84.28;98228.16;4944098;28;20042;-57
2022/06/23 05:45:46;;;;;;;7.18;3.63;;;;;;;19.92;84.77;98228.38;4956916;28;20031;-58
2022/06/23 05:48:17;;;;;;;8.77;3.78;;;;;;;19.97;84.85;98217.19;4953310;28;20042;-57
2022/06/23 05:51:05;;;;;;;8.35;3.88;;;;;;;20.13;84.18;98226.38;4949327;28;20147;-59
2022/06/23 05:53:39;;;;;;;8.43;4.35;;;;;;;20.13;84.98;98223.75;4951400;28;20039;-58
2022/06/23 05:56:11;;;;;;;9.98;4.15;;;;;;;20.13;84.97;98229.84;4923534;29;20055;-59
2022/06/23 05:59:00;;;;;;;13.65;4.80;;;;;;;20.04;85.26;98223.22;4927360;28;20398;-60
2022/06/23 06:01:30;;;;;;;8.57;4.17;;;;;;;19.88;85.50;98203.44;4941328;28;20027;-57
2022/06/23 06:04:02;;;;;;;10.40;4.95;;;;;;;20.06;85.21;98225.63;4958045;28;20126;-59
2022/06/23 06:06:28;;;;;;;10.43;4.45;;;;;;;20.15;83.23;98227.81;4946020;28;20023;-57
2022/06/23 06:11:43;;;;;;;6.43;3.55;;;;;;;20.00;83.41;98187.72;4949197;28;20174;-56
2022/06/23 06:14:12;;;;;;;8.88;4.07;;;;;;;20.13;83.55;98206.09;4940343;28;20112;-57
2022/06/23 06:16:38;;;;;;;8.30;4.10;;;;;;;19.95;84.14;98187.56;4925110;28;20038;-59
2022/06/23 06:19:04;;;;;;;11.00;4.53;;;;;;;20.13;84.07;98205.28;4939852;28;20035;-60
2022/06/23 06:21:29;;;;;;;8.60;3.97;;;;;;;20.16;83.94;98216.19;4890590;28;20069;-59
2022/06/23 06:24:01;;;;;;;9.07;4.05;;;;;;;20.17;84.64;98215.19;4951310;28;20110;-59
2022/06/23 06:26:36;;;;;;;9.00;4.10;;;;;;;19.89;84.42;98175.22;4939092;28;20597;-57
2022/06/23 06:29:21;;;;;;;9.75;4.68;;;;;;;20.16;84.34;98207.47;4940191;28;20074;-57
2022/06/23 06:32:25;;;;;;;10.10;4.40;;;;;;;20.17;84.66;98209.91;4955144;28;20446;-57
2022/06/23 06:34:54;;;;;;;9.07;4.57;;;;;;;20.17;84.74;98203.84;4930964;28;20035;-57
2022/06/23 06:37:23;;;;;;;9.75;4.50;;;;;;;20.19;84.12;98214.16;4940105;28;20157;-58
2022/06/23 06:39:53;;;;;;;8.27;4.22;;;;;;;20.20;84.40;98213.13;4923414;28;20118;-59
2022/06/23 06:42:23;;;;;;;8.45;3.90;;;;;;;20.19;84.35;98216.78;4937425;28;20031;-59
2022/06/23 06:44:51;;;;;;;9.13;3.95;;;;;;;20.28;82.88;98221.59;4939387;28;20027;-57
2022/06/23 06:47:22;;;;;;;9.45;4.68;;;;;;;20.27;83.32;98224.44;4936250;28;20030;-58
2022/06/23 06:49:48;;;;;;;8.90;4.40;;;;;;;20.32;84.48;98225.41;4939134;28;20035;-58
2022/06/23 06:52:14;;;;;;;7.20;4.47;;;;;;;20.23;84.25;98202.16;4941333;28;20038;-56
2022/06/23 06:54:46;;;;;;;8.60;4.63;;;;;;;20.40;85.15;98232.25;4925894;28;20481;-57
2022/06/23 06:57:33;;;;;;;7.45;4.50;;;;;;;20.40;85.67;98226.97;4941408;28;20395;-59
2022/06/23 07:00:22;;;;;;;9.88;4.90;;;;;;;20.46;84.85;98223.47;4965199;28;20038;-57
2022/06/23 07:02:52;;;;;;;9.07;5.07;;;;;;;20.40;85.79;98234.09;4939542;28;20035;-57
2022/06/23 07:05:23;;;;;;;11.93;4.40;;;;;;;20.23;84.71;98202.16;4954238;28;20019;-61
2022/06/23 07:07:55;;;;;;;7.97;4.72;;;;;;;20.43;85.40;98237.09;4942558;28;20031;-60
2022/06/23 07:10:34;;;;;;;9.85;4.97;;;;;;;20.51;83.61;98231.53;4943120;28;20300;-58
2022/06/23 07:13:05;;;;;;;8.35;4.50;;;;;;;20.61;84.20;98230.25;4938894;28;20410;-59
2022/06/23 07:15:38;;;;;;;7.93;4.10;;;;;;;20.70;85.19;98231.59;4954278;28;20113;-56
2022/06/23 07:18:28;;;;;;;10.40;4.63;;;;;;;20.77;84.45;98232.31;4938348;28;20727;-57
2022/06/23 07:20:56;;;;;;;10.05;4.10;;;;;;;20.46;83.09;98188.31;4925224;28;20042;-56
2022/06/23 07:23:29;;;;;;;11.27;3.88;;;;;;;20.64;82.47;98204.19;4941574;28;20027;-59
2022/06/23 07:26:20;;;;;;;8.68;4.03;;;;;;;20.89;81.42;98246.41;4923047;28;20135;-59
2022/06/23 07:28:50;;;;;;;9.88;4.53;;;;;;;20.83;81.24;98235.94;4942979;28;20698;-58
2022/06/23 07:31:19;;;;;;;7.82;3.95;;;;;;;20.71;80.86;98209.41;4922143;29;20035;-57
2022/06/23 07:33:51;;;;;;;10.95;4.07;;;;;;;20.93;80.55;98242.28;4941377;28;20067;-56
2022/06/23 07:36:21;;;;;;;9.48;3.75;;;;;;;20.96;80.89;98242.91;4936753;28;20071;-57
2022/06/23 07:38:55;;;;;;;13.70;4.40;;;;;;;21.05;80.14;98247.66;4935054;28;20035;-56
2022/06/23 07:41:27;;;;;;;10.27;3.80;;;;;;;21.29;78.81;98256.53;4936144;28;20039;-58
2022/06/23 07:44:16;;;;;;;9.02;4.22;;;;;;;21.78;76.14;98229.25;4951712;28;20038;-60
2022/06/23 07:46:41;;;;;;;8.02;3.60;;;;;;;22.60;73.12;98269.09;4940856;28;20468;-56
2022/06/23 07:49:07;;;;;;;7.53;3.30;;;;;;;23.03;70.57;98265.22;4956754;28;20066;-60
2022/06/23 07:51:33;;;;;;;9.18;3.72;;;;;;;23.26;69.29;98270.75;4943551;28;20118;-57
2022/06/23 07:53:59;;;;;;;9.80;4.03;;;;;;;23.39;68.12;98273.91;4957104;28;20069;-58
2022/06/23 07:56:31;;;;;;;7.55;3.63;;;;;;;23.59;67.53;98275.34;4945408;28;20063;-57
2022/06/23 07:59:01;;;;;;;7.28;3.78;;;;;;;24.07;66.26;98284.72;4936413;28;20138;-54
2022/06/23 08:01:29;;;;;;;7.57;3.63;;;;;;;24.40;65.10;98279.66;4938877;28;20750;-56
2022/06/23 08:04:28;;;;;;;9.30;3.33;;;;;;;24.66;63.14;98280.84;4939637;28;20043;-59
2022/06/23 08:06:56;;;;;;;7.75;3.28;;;;;;;24.68;63.14;98276.09;4940201;28;20426;-58
2022/06/23 08:09:28;;;;;;;9.63;3.72;;;;;;;24.55;61.68;98282.56;4938321;28;20032;-58
2022/06/23 08:14:50;;;;;;;8.35;4.32;;;;;;;24.60;61.28;98248.09;4941645;28;20042;-58
2022/06/23 08:17:17;;;;;;;10.18;4.32;;;;;;;24.81;61.29;98272.31;4938945;28;20065;-57
2022/06/23 08:19:47;;;;;;;9.65;4.35;;;;;;;24.86;62.18;98270.53;4942299;28;20035;-59
2022/06/23 08:22:27;;;;;;;10.57;3.83;;;;;;;24.91;61.25;98267.91;4941983;28;20027;-59
2022/06/23 08:24:56;;;;;;;11.05;4.32;;;;;;;24.82;63.19;98263.25;4924865;28;20046;-58
2022/06/23 08:27:28;;;;;;;8.02;3.63;;;;;;;24.91;62.40;98217.38;4930943;28;20035;-59
2022/06/23 08:29:56;;;;;;;14.57;4.22;;;;;;;25.12;63.09;98249.56;4957507;28;20442;-58
2022/06/23 08:32:23;;;;;;;9.85;3.50;;;;;;;25.28;62.75;98227.44;4923749;29;20036;-58
2022/06/23 08:35:03;;;;;;;10.82;4.00;;;;;;;25.40;60.72;98227.28;4931902;28;20819;-61
2022/06/23 08:37:34;;;;;;;11.30;3.90;;;;;;;25.44;61.95;98240.88;4939656;28;20122;-60
2022/06/23 08:40:31;;;;;;;8.85;3.80;;;;;;;25.75;60.77;98249.97;4940586;28;20023;-58
2022/06/23 08:43:23;;;;;;;10.02;3.85;;;;;;;25.67;60.44;98253.09;4941898;28;20043;-62
2022/06/23 08:45:53;;;;;;;9.57;3.65;;;;;;;26.23;58.96;98258.94;4941867;28;20046;-61
2022/06/23 08:48:21;;;;;;;10.20;4.05;;;;;;;26.31;58.40;98259.53;4938688;28;20102;-59
2022/06/23 08:51:04;;;;;;;11.30;4.97;;;;;;;26.58;57.67;98257.56;4943745;28;20501;-60
2022/06/23 08:53:42;;;;;;;9.63;3.92;;;;;;;26.63;55.85;98238.16;4934428;28;20033;-64
2022/06/23 08:56:13;;;;;;;10.75;4.07;;;;;;;26.79;57.26;98255.03;4948412;28;20565;-62
2022/06/23 08:58:51;;;;;;;10.93;4.30;;;;;;;26.78;55.54;98254.25;4919857;28;20093;-64
2022/06/23 09:01:28;;;;;;;9.05;3.83;;;;;;;27.33;53.05;98224.59;4937301;28;20031;-61
2022/06/23 09:04:08;;;;;;;7.00;3.72;;;;;;;28.24;51.45;98244.47;4941715;28;20565;-60
2022/06/23 09:06:47;;;;;;;10.15;4.13;;;;;;;28.49;50.79;98242.78;4938965;28;20032;-59
2022/06/23 09:09:33;;;;;;;9.47;3.80;;;;;;;28.15;50.86;98243.41;4942032;28;20050;-58
2022/06/23 09:12:16;;;;;;;8.45;4.00;;;;;;;27.91;51.92;98246.59;4946028;28;20109;-61
2022/06/23 09:14:56;;;;;;;12.00;3.85;;;;;;;28.19;51.20;98249.78;4951533;28;20031;-63
2022/06/23 09:17:22;;;;;;;6.93;4.05;;;;;;;28.22;51.07;98243.94;4962464;28;20089;-62
2022/06/23 09:20:09;;;;;;;9.60;4.40;;;;;;;27.75;52.31;98240.41;4955772;28;20030;-61
2022/06/23 09:22:50;;;;;;;8.50;4.20;;;;;;;28.32;50.88;98238.56;4943214;28;20095;-59
2022/06/23 09:25:46;;;;;;;10.10;4.28;;;;;;;28.51;50.24;98233.44;4944059;28;20388;-62
2022/06/23 09:28:48;;;;;;;8.38;4.07;;;;;;;29.10;48.79;98226.56;4939189;28;20122;-57
2022/06/23 09:31:32;;;;;;;7.97;4.22;;;;;;;29.90;46.93;98214.06;4921156;29;20091;-57
2022/06/23 09:33:57;;;;;;;11.20;4.00;;;;;;;30.12;45.86;98212.78;4951399;28;20057;-58
2022/06/23 09:36:46;;;;;;;10.82;3.80;;;;;;;30.46;44.90;98207.38;4953817;28;20039;-60
2022/06/23 09:39:31;;;;;;;10.73;4.33;;;;;;;30.59;44.24;98192.50;4936939;28;20129;-60
2022/06/23 09:42:18;;;;;;;9.38;4.43;;;;;;;30.38;45.82;98192.72;4930529;28;20279;-57
2022/06/23 09:44:55;;;;;;;8.85;4.00;;;;;;;30.47;44.39;98193.69;4926898;28;20050;-58
2022/06/23 09:47:39;;;;;;;9.35;4.20;;;;;;;30.44;44.57;98188.88;4945261;28;20039;-57
2022/06/23 09:50:17;;;;;;;9.65;4.10;;;;;;;30.59;44.54;98189.81;4941438;28;20027;-59
2022/06/23 09:53:02;;;;;;;12.30;4.30;;;;;;;30.58;44.39;98182.84;4931447;28;20038;-60
2022/06/23 09:56:01;;;;;;;10.18;4.72;;;;;;;29.27;47.98;98183.41;4946106;28;20577;-59
2022/06/23 09:58:39;;;;;;;9.98;4.40;;;;;;;29.05;49.59;98183.78;4934547;28;20386;-57
2022/06/23 10:01:21;;;;;;;8.05;4.50;;;;;;;28.58;51.09;98187.72;4936301;28;20106;-59
2022/06/23 10:04:10;;;;;;;9.70;4.45;;;;;;;28.06;52.62;98187.00;4938399;28;20059;-58
2022/06/23 10:07:05;;;;;;;13.90;4.60;;;;;;;27.73;52.19;98180.34;4945420;28;20038;-59
2022/06/23 10:10:00;;;;;;;10.43;4.68;;;;;;;26.99;55.26;98164.44;4955655;28;20031;-56
2022/06/23 10:12:34;;;;;;;8.75;4.45;;;;;;;27.09;58.19;98168.19;4942548;28;20041;-58
2022/06/23 10:15:11;;;;;;;9.48;4.35;;;;;;;27.17;58.32;98160.47;4941167;28;20027;-56
2022/06/23 10:17:43;;;;;;;9.63;4.50;;;;;;;27.14;57.33;98161.00;4934956;28;20036;-55
2022/06/23 10:20:11;;;;;;;12.80;4.97;;;;;;;26.99;56.47;98135.06;4908125;28;20101;-59
2022/06/23 10:22:55;;;;;;;10.25;4.40;;;;;;;26.87;57.13;98163.06;4935961;28;20434;-61
2022/06/23 10:25:46;;;;;;;9.55;4.13;;;;;;;26.93;56.77;98164.69;4942183;28;20042;-62
2022/06/23 10:28:37;;;;;;;12.90;4.80;;;;;;;26.89;57.55;98169.75;4941084;28;20499;-56
2022/06/23 10:31:33;;;;;;;11.68;4.75;;;;;;;27.09;55.65;98168.19;4943473;28;20085;-58
2022/06/23 10:34:03;;;;;;;10.23;4.68;;;;;;;27.13;56.38;98183.41;4943578;28;20140;-59
2022/06/23 10:40:22;;;;;;;10.73;5.22;;;;;;;27.10;54.82;98175.94;4926422;28;20292;-56
2022/06/23 10:43:02;;;;;;;12.93;5.30;;;;;;;26.90;55.37;98173.19;4936810;28;20074;-59
2022/06/23 10:45:44;;;;;;;10.45;5.00;;;;;;;26.84;54.82;98156.38;4945779;28;20041;-58
2022/06/23 10:48:24;;;;;;;11.43;4.80;;;;;;;26.97;55.25;98171.88;4954437;28;20063;-59
2022/06/23 10:51:14;;;;;;;13.93;5.03;;;;;;;27.00;56.14;98166.03;4947352;28;20034;-64
2022/06/23 10:54:17;;;;;;;11.73;5.03;;;;;;;27.15;55.12;98162.59;4939851;28;20027;-62
2022/06/23 10:56:49;;;;;;;11.07;5.07;;;;;;;27.31;53.26;98151.97;4941404;28;20561;-63
2022/06/23 10:59:21;;;;;;;13.90;5.00;;;;;;;27.54;51.84;98153.34;4937793;28;20070;-64
2022/06/23 11:02:10;;;;;;;14.63;5.30;;;;;;;27.78;50.71;98150.94;4940507;28;20470;-60
2022/06/23 11:05:26;;;;;;;11.48;4.50;;;;;;;27.91;50.80;98149.59;4939882;28;20130;-62
2022/06/23 11:08:04;;;;;;;10.82;4.85;;;;;;;27.94;50.26;98144.53;4920709;28;20626;-59
2022/06/23 11:10:56;;;;;;;10.10;4.28;;;;;;;27.88;49.77;98144.78;4908438;28;20034;-60
2022/06/23 11:13:21;;;;;;;13.05;4.80;;;;;;;27.92;50.40;98135.19;4904984;28;20040;-61
2022/06/23 11:15:59;;;;;;;15.40;4.88;;;;;;;27.93;49.01;98124.25;4949211;28;20042;-61
2022/06/23 11:18:46;;;;;;;11.93;5.00;;;;;;;28.02;50.01;98145.88;4938121;28;20137;-62
2022/06/23 11:21:23;;;;;;;9.35;4.85;;;;;;;27.66;50.96;98124.50;4941573;28;20035;-62
2022/06/23 11:24:33;;;;;;;17.20;5.32;;;;;;;28.05;50.97;98139.19;4935585;28;20037;-62
2022/06/23 11:27:09;;;;;;;13.40;5.32;;;;;;;28.14;50.34;98143.69;4930299;28;20082;-64
2022/06/23 11:29:41;;;;;;;13.63;5.25;;;;;;;28.03;49.48;98114.59;4957073;28;20109;-60
2022/06/23 11:32:10;;;;;;;16.88;5.57;;;;;;;28.17;49.79;98150.38;4940225;28;20072;-59
2022/06/23 11:34:55;;;;;;;15.00;5.35;;;;;;;28.07;49.64;98143.16;4940810;28;20037;-63
2022/06/23 11:37:32;;;;;;;10.90;5.07;;;;;;;27.93;49.81;98139.47;4954735;28;20042;-64
2022/06/23 11:39:58;;;;;;;17.00;5.20;;;;;;;28.10;50.43;98142.63;4952328;28;20027;-60
2022/06/23 11:42:41;;;;;;;12.23;5.25;;;;;;;28.08;50.11;98144.00;4942159;28;21435;-62
2022/06/23 11:45:34;;;;;;;13.75;4.90;;;;;;;28.01;49.72;98140.81;4955401;28;20127;-61
2022/06/23 11:48:22;;;;;;;14.55;5.65;;;;;;;28.17;48.90;98145.03;4956251;28;20682;-59
2022/06/23 11:50:54;;;;;;;13.82;5.25;;;;;;;28.28;49.01;98125.22;4941566;28;20150;-59
2022/06/23 11:53:39;;;;;;;12.07;4.93;;;;;;;28.27;49.75;98136.97;4922190;28;20035;-60
2022/06/23 11:56:12;;;;;;;17.35;5.68;;;;;;;28.30;48.87;98133.78;4943214;28;20023;-60
2022/06/23 11:58:50;;;;;;;11.57;4.85;;;;;;;28.30;48.99;98124.97;4944784;28;20157;-60
2022/06/23 12:01:20;;;;;;;18.58;5.18;;;;;;;28.58;49.15;98138.78;4942261;28;20034;-61
2022/06/23 12:04:23;;;;;;;13.43;4.68;;;;;;;28.72;47.86;98126.44;4921385;28;20035;-60
2022/06/23 12:07:19;;;;;;;15.88;4.70;;;;;;;28.76;46.87;98108.75;4936849;28;20038;-61
2022/06/23 12:10:00;;;;;;;15.73;4.95;;;;;;;28.81;47.06;98123.97;4942273;28;20423;-61
2022/06/23 12:12:28;;;;;;;17.98;5.43;;;;;;;28.54;46.97;98101.09;4940650;28;20809;-60
2022/06/23 12:14:54;;;;;;;17.50;5.70;;;;;;;28.61;47.27;98106.94;4938849;28;22001;-61
2022/06/23 12:17:24;;;;;;;18.98;5.78;;;;;;;28.76;47.10;98114.09;4943281;28;20156;-61
2022/06/23 12:19:56;;;;;;;18.52;5.40;;;;;;;28.75;46.90;98120.53;4951784;28;20031;-60
2022/06/23 12:22:26;;;;;;;14.52;5.07;;;;;;;28.67;47.46;98119.22;4942933;28;20030;-59
2022/06/23 12:25:10;;;;;;;15.90;5.43;;;;;;;28.70;48.14;98125.91;4924059;28;20066;-58
2022/06/23 12:27:47;;;;;;;18.88;5.53;;;;;;;28.57;48.27;98138.00;4940033;28;20054;-61
2022/06/23 12:30:16;;;;;;;12.02;5.22;;;;;;;28.52;49.07;98140.66;4967103;28;20027;-62